Time;durP1;ratioP1;P1;durP2;ratioP2;P2;SDS_P1;SDS_P2;PMS_P1;PMS_P2;Temp;Humidity;BMP_temperature;BMP_pressure;BME280_temperature;BME280_humidity;BME280_pressure;Samples;Min_cycle;Max_cycle;Signal;HPM_P1;HPM_P2
2021/09/02 00:01:43;;;;;;;0.57;0.57;;;;;;;20.56;55.24;102957.25;4975899;28;20038;-93
2021/09/02 00:04:09;;;;;;;0.10;0.10;;;;;;;20.53;54.72;102957.31;4975621;28;20500;-93
2021/09/02 00:06:36;;;;;;;0.57;0.57;;;;;;;20.52;54.25;102952.84;4973508;28;20035;-92
2021/09/02 00:09:02;;;;;;;0.22;0.22;;;;;;;20.53;54.76;102955.50;4975577;28;20027;-92
2021/09/02 00:11:29;;;;;;;2.75;0.65;;;;;;;20.53;54.68;102949.22;4975151;28;20500;-91
2021/09/02 00:13:55;;;;;;;0.10;0.10;;;;;;;20.50;54.94;102939.44;4975675;28;20038;-92
2021/09/02 00:16:21;;;;;;;0.30;0.30;;;;;;;20.49;55.07;102939.50;4975029;28;20031;-92
2021/09/02 00:18:48;;;;;;;0.10;0.10;;;;;;;20.47;54.90;102944.94;4975003;28;20038;-92
2021/09/02 00:21:14;;;;;;;0.20;0.20;;;;;;;20.44;54.85;102939.63;4973309;28;20268;-93
2021/09/02 00:23:41;;;;;;;0.10;0.10;;;;;;;20.43;55.13;102945.03;4975257;28;20030;-91
2021/09/02 00:26:07;;;;;;;0.10;0.10;;;;;;;20.36;54.67;102945.22;4974950;28;20178;-91
2021/09/02 00:28:34;;;;;;;0.10;0.10;;;;;;;20.34;54.70;102943.50;4974270;28;20065;-93
2021/09/02 00:31:00;;;;;;;0.00;0.00;;;;;;;20.30;54.86;102937.31;4973879;28;20417;-92
2021/09/02 00:33:27;;;;;;;0.10;0.10;;;;;;;20.26;54.47;102938.34;4974300;28;20023;-91
2021/09/02 00:35:53;;;;;;;0.10;0.10;;;;;;;20.24;54.26;102941.97;4974633;28;20378;-90
2021/09/02 00:38:20;;;;;;;0.00;0.00;;;;;;;20.23;54.61;102941.09;4974875;28;20034;-93
2021/09/02 00:40:46;;;;;;;0.10;0.10;;;;;;;20.21;54.31;102937.53;4974993;28;20062;-91
2021/09/02 00:43:12;;;;;;;0.55;0.55;;;;;;;20.19;53.92;102936.72;4974631;28;20114;-93
2021/09/02 00:45:39;;;;;;;0.10;0.10;;;;;;;20.17;53.89;102941.25;4975465;28;20041;-92
2021/09/02 00:48:06;;;;;;;0.00;0.00;;;;;;;20.19;54.21;102940.28;4974839;28;20030;-93
2021/09/02 00:50:34;;;;;;;0.10;0.10;;;;;;;20.18;53.63;102937.66;4973444;28;20085;-91
2021/09/02 00:53:01;;;;;;;0.10;0.10;;;;;;;20.16;53.81;102939.50;4974690;28;20053;-92
2021/09/02 00:55:28;;;;;;;0.10;0.10;;;;;;;20.10;53.96;102935.16;4974430;28;20031;-91
2021/09/02 00:57:55;;;;;;;3.20;0.57;;;;;;;20.12;54.19;102932.44;4974539;28;20470;-93
2021/09/02 01:00:21;;;;;;;0.65;0.25;;;;;;;20.13;54.04;102929.69;4974595;28;20035;-93
2021/09/02 01:02:48;;;;;;;0.10;0.10;;;;;;;20.14;54.04;102926.06;4982766;28;20030;-91
2021/09/02 01:05:18;;;;;;;0.40;0.40;;;;;;;20.14;54.10;102928.78;4977138;28;20023;-92
2021/09/02 01:07:45;;;;;;;0.10;0.10;;;;;;;20.15;54.19;102921.56;4974502;28;20070;-92
2021/09/02 01:10:12;;;;;;;0.00;0.00;;;;;;;20.15;54.26;102922.47;4974625;28;20089;-93
2021/09/02 01:12:45;;;;;;;0.13;0.13;;;;;;;20.15;54.34;102918.88;4974633;28;20019;-93
2021/09/02 01:15:12;;;;;;;;;;;;;;;20.25;54.03;102909.66;4975172;28;20023;-93
2021/09/02 01:17:45;;;;;;;0.00;0.00;;;;;;;20.15;54.69;102908.09;4974439;28;19911;-92
2021/09/02 01:20:13;;;;;;;0.47;0.47;;;;;;;20.14;54.82;102914.44;4974770;28;20038;-92
2021/09/02 01:22:41;;;;;;;0.10;0.10;;;;;;;20.14;54.79;102920.69;4978495;28;20470;-92
2021/09/02 01:25:11;;;;;;;0.10;0.10;;;;;;;20.14;55.36;102919.81;4978702;28;20422;-94
2021/09/02 01:27:38;;;;;;;0.00;0.00;;;;;;;20.15;55.25;102926.94;4978689;28;20027;-93
2021/09/02 01:30:08;;;;;;;0.43;0.43;;;;;;;20.11;55.22;102919.91;4978841;28;20117;-94
2021/09/02 01:32:37;;;;;;;0.10;0.10;;;;;;;20.15;54.77;102918.88;4978528;28;20027;-93
2021/09/02 01:35:06;;;;;;;0.30;0.30;;;;;;;20.15;55.10;102910.81;4978348;28;20031;-93
2021/09/02 01:37:43;;;;;;;0.10;0.10;;;;;;;20.22;54.86;102923.16;4978121;28;20026;-93
2021/09/02 01:40:15;;;;;;;0.15;0.15;;;;;;;20.17;55.35;102925.09;4978306;28;20512;-92
2021/09/02 01:42:43;;;;;;;0.10;0.10;;;;;;;20.18;55.37;102916.13;4978526;28;20047;-92
2021/09/02 01:45:10;;;;;;;0.10;0.10;;;;;;;20.13;56.07;102920.75;4977874;28;20026;-92
2021/09/02 01:47:37;;;;;;;0.10;0.10;;;;;;;20.18;55.44;102910.72;4977739;28;20053;-92
2021/09/02 01:50:09;;;;;;;0.10;0.10;;;;;;;20.21;55.65;102918.72;4977730;28;20045;-92
2021/09/02 01:52:37;;;;;;;0.00;0.00;;;;;;;20.20;55.66;102914.28;4977953;28;20035;-92
2021/09/02 01:55:05;;;;;;;0.00;0.00;;;;;;;20.21;55.52;102916.00;4977688;28;20029;-91
2021/09/02 01:57:32;;;;;;;0.03;0.03;;;;;;;20.20;55.88;102914.28;4977667;28;20027;-92
2021/09/02 01:59:58;;;;;;;1.27;1.17;;;;;;;20.21;55.94;102916.00;4977185;28;20070;-91
2021/09/02 02:02:25;;;;;;;0.10;0.10;;;;;;;20.22;55.99;102912.41;4977358;28;20038;-92
2021/09/02 02:04:51;;;;;;;0.82;0.82;;;;;;;20.20;56.33;102919.66;4977371;28;20046;-92
2021/09/02 02:07:18;;;;;;;0.10;0.10;;;;;;;20.18;56.68;102921.50;4977192;28;20110;-92
2021/09/02 02:09:45;;;;;;;0.00;0.00;;;;;;;20.17;56.54;102925.97;4976988;28;20597;-92
2021/09/02 02:12:11;;;;;;;0.20;0.20;;;;;;;20.15;57.01;102911.69;4977793;28;20039;-92
2021/09/02 02:14:38;;;;;;;0.10;0.10;;;;;;;20.16;56.57;102923.34;4982929;28;20042;-93
2021/09/02 02:17:05;;;;;;;0.10;0.10;;;;;;;20.16;56.42;102904.50;4980587;28;20038;-92
2021/09/02 02:19:31;;;;;;;0.08;0.08;;;;;;;20.15;56.66;102908.09;4977621;28;20038;-92
2021/09/02 02:21:58;;;;;;;0.10;0.10;;;;;;;20.14;56.67;102907.25;4977602;28;20035;-92
2021/09/02 02:24:24;;;;;;;0.08;0.08;;;;;;;20.11;56.48;102910.03;4977407;28;20035;-91
2021/09/02 02:26:51;;;;;;;0.55;0.55;;;;;;;20.08;56.43;102909.22;4977025;28;20034;-92
2021/09/02 02:29:17;;;;;;;0.30;0.30;;;;;;;20.06;56.32;102911.94;4975844;28;20030;-93
2021/09/02 02:31:43;;;;;;;0.10;0.10;;;;;;;20.06;56.60;102916.44;4976813;28;20035;-90
2021/09/02 02:34:10;;;;;;;0.10;0.10;;;;;;;20.06;57.40;102917.31;4992090;28;20031;-88
2021/09/02 02:36:36;;;;;;;0.20;0.20;;;;;;;20.03;57.49;102912.91;4977021;28;20033;-92
2021/09/02 02:39:04;;;;;;;0.10;0.10;;;;;;;20.00;57.13;102913.00;4976596;28;20031;-93
2021/09/02 02:41:31;;;;;;;0.10;0.10;;;;;;;19.97;57.40;102913.06;4977384;28;20054;-93
2021/09/02 02:43:58;;;;;;;0.10;0.10;;;;;;;19.95;57.66;102906.88;4977490;28;20085;-93
2021/09/02 02:46:24;;;;;;;0.10;0.10;;;;;;;19.96;57.17;102908.63;4977251;28;20062;-92
2021/09/02 02:48:50;;;;;;;0.10;0.10;;;;;;;19.98;57.61;102908.59;4977161;28;20030;-92
2021/09/02 02:51:17;;;;;;;0.10;0.10;;;;;;;20.00;57.57;102912.09;4976752;28;20027;-93
2021/09/02 02:53:43;;;;;;;0.10;0.10;;;;;;;19.99;57.62;102911.22;4977374;28;20081;-92
2021/09/02 02:56:10;;;;;;;0.30;0.25;;;;;;;20.01;57.52;102908.50;4976662;28;20482;-91
2021/09/02 02:58:36;;;;;;;0.03;0.03;;;;;;;20.02;57.41;102911.13;4976917;28;20031;-92
2021/09/02 03:01:03;;;;;;;0.45;0.20;;;;;;;20.01;57.81;102909.41;4976750;28;20030;-92
2021/09/02 03:03:29;;;;;;;0.10;0.10;;;;;;;20.00;57.82;102906.72;4977014;28;20019;-91
2021/09/02 03:05:56;;;;;;;0.10;0.10;;;;;;;19.94;58.20;102902.41;4976637;28;20658;-92
2021/09/02 03:08:22;;;;;;;0.10;0.10;;;;;;;19.97;57.63;102906.81;4977087;28;20035;-91
2021/09/02 03:10:49;;;;;;;0.10;0.10;;;;;;;19.96;57.51;102900.56;4976639;28;20035;-92
2021/09/02 03:13:15;;;;;;;0.10;0.10;;;;;;;19.95;57.51;102901.50;4976167;28;20034;-92
2021/09/02 03:15:41;;;;;;;0.00;0.00;;;;;;;19.96;57.70;102899.66;4976200;28;20031;-92
2021/09/02 03:18:08;;;;;;;0.25;0.25;;;;;;;19.97;57.75;102901.44;4976234;28;20042;-92
2021/09/02 03:20:34;;;;;;;0.05;0.05;;;;;;;19.98;57.56;102901.38;4975970;28;20046;-91
2021/09/02 03:23:00;;;;;;;0.10;0.10;;;;;;;20.00;57.46;102898.66;4976449;28;20151;-91
2021/09/02 03:25:27;;;;;;;0.25;0.25;;;;;;;19.99;57.54;102895.09;4979665;28;20504;-90
2021/09/02 03:28:01;;;;;;;0.10;0.10;;;;;;;20.01;57.76;102898.63;4979944;28;20027;-91
2021/09/02 03:30:34;;;;;;;0.10;0.10;;;;;;;20.00;58.05;102895.97;4976249;28;20027;-91
2021/09/02 03:33:06;;;;;;;0.10;0.10;;;;;;;19.98;57.74;102901.38;4978234;28;20066;-91
2021/09/02 03:35:32;;;;;;;0.10;0.10;;;;;;;19.96;57.77;102894.28;4977711;28;20023;-89
2021/09/02 03:37:58;;;;;;;0.10;0.10;;;;;;;19.95;57.87;102896.09;4976129;28;20106;-92
2021/09/02 03:40:24;;;;;;;0.88;0.50;;;;;;;19.94;57.95;102902.41;4976436;28;20035;-90
2021/09/02 03:42:51;;;;;;;0.25;0.25;;;;;;;19.93;58.42;102892.56;4976061;28;20489;-91
2021/09/02 03:45:17;;;;;;;0.08;0.08;;;;;;;19.94;58.13;102894.34;4975625;28;20039;-92
2021/09/02 03:47:48;;;;;;;0.13;0.13;;;;;;;19.97;58.13;102893.38;4976284;28;20035;-90
2021/09/02 03:50:15;;;;;;;0.05;0.05;;;;;;;19.91;58.42;102890.84;4975852;28;20031;-92
2021/09/02 03:52:42;;;;;;;0.10;0.10;;;;;;;19.92;58.13;102885.41;4974828;28;20035;-92
2021/09/02 03:55:09;;;;;;;0.03;0.03;;;;;;;19.93;58.26;102889.00;4990997;28;20050;-92
2021/09/02 03:57:35;;;;;;;0.10;0.10;;;;;;;19.91;58.60;102883.63;4976114;28;20054;-92
2021/09/02 04:00:04;;;;;;;0.00;0.00;;;;;;;19.91;58.27;102891.72;4976024;28;20086;-92
2021/09/02 04:02:30;;;;;;;0.10;0.10;;;;;;;19.91;58.25;102886.31;4976109;28;20089;-91
2021/09/02 04:04:56;;;;;;;0.10;0.10;;;;;;;19.91;58.60;102891.72;4976945;28;20027;-92
2021/09/02 04:07:22;;;;;;;0.88;0.88;;;;;;;19.91;58.45;102885.47;4961068;28;20030;-90
2021/09/02 04:09:48;;;;;;;0.10;0.10;;;;;;;19.90;58.76;102878.31;4976839;28;20042;-91
2021/09/02 04:12:15;;;;;;;0.10;0.10;;;;;;;19.86;59.12;102885.56;4976743;28;20497;-92
2021/09/02 04:14:41;;;;;;;0.00;0.00;;;;;;;19.84;58.96;102884.75;4976731;28;20118;-91
2021/09/02 04:17:07;;;;;;;0.75;0.75;;;;;;;19.84;58.85;102882.94;4976837;28;20038;-90
2021/09/02 04:19:33;;;;;;;0.00;0.00;;;;;;;19.82;58.88;102881.19;4976290;28;20089;-91
2021/09/02 04:22:00;;;;;;;0.05;0.05;;;;;;;19.80;58.92;102877.63;4976492;28;20409;-91
2021/09/02 04:24:26;;;;;;;1.13;0.73;;;;;;;19.80;58.96;102877.63;4977378;28;20027;-92
2021/09/02 04:26:53;;;;;;;0.10;0.10;;;;;;;19.80;59.18;102877.63;4976677;28;20031;-91
2021/09/02 04:29:20;;;;;;;0.30;0.30;;;;;;;19.80;59.23;102872.25;4975941;28;20118;-91
2021/09/02 04:31:46;;;;;;;0.03;0.03;;;;;;;19.80;59.28;102881.22;4978047;28;20034;-90
2021/09/02 04:34:12;;;;;;;0.10;0.10;;;;;;;19.80;59.17;102873.16;4990432;28;20066;-90
2021/09/02 04:36:39;;;;;;;0.10;0.10;;;;;;;19.80;59.07;102883.00;4996805;28;20092;-89
2021/09/02 04:39:06;;;;;;;0.00;0.00;;;;;;;19.79;59.16;102882.16;4995603;28;20053;-90
2021/09/02 04:41:32;;;;;;;0.10;0.10;;;;;;;19.78;59.29;102884.88;4996840;28;20015;-88
2021/09/02 04:43:59;;;;;;;0.00;0.00;;;;;;;19.79;59.17;102886.63;4997148;28;20061;-89
2021/09/02 04:46:25;;;;;;;0.00;0.00;;;;;;;19.79;59.09;102889.31;4996237;28;20037;-93
2021/09/02 04:48:51;;;;;;;0.10;0.10;;;;;;;19.78;59.35;102891.13;4988325;28;20027;-93
2021/09/02 04:51:18;;;;;;;0.00;0.00;;;;;;;19.79;59.04;102884.84;4978403;28;20035;-91
2021/09/02 04:53:45;;;;;;;0.03;0.03;;;;;;;19.79;58.63;102892.00;4978371;28;20037;-92
2021/09/02 04:56:11;;;;;;;0.10;0.10;;;;;;;19.79;58.49;102881.25;4976461;28;20125;-91
2021/09/02 04:58:38;;;;;;;0.10;0.10;;;;;;;19.80;58.75;102883.00;4975578;28;20583;-93
2021/09/02 05:01:05;;;;;;;0.08;0.08;;;;;;;19.81;58.75;102891.06;4974909;28;20114;-91
2021/09/02 05:03:32;;;;;;;0.00;0.00;;;;;;;19.80;58.89;102893.78;4975436;28;20524;-93
2021/09/02 05:05:58;;;;;;;0.43;0.40;;;;;;;19.83;58.75;102888.34;4975082;28;20030;-91
2021/09/02 05:08:24;;;;;;;0.10;0.10;;;;;;;19.80;59.20;102891.97;4975805;28;20034;-93
2021/09/02 05:10:51;;;;;;;1.98;0.90;;;;;;;19.83;58.96;102893.75;4976200;28;20062;-90
2021/09/02 05:13:17;;;;;;;0.43;0.43;;;;;;;19.84;58.95;102900.91;4974747;28;20061;-94
2021/09/02 05:15:44;;;;;;;0.00;0.00;;;;;;;19.85;58.84;102897.25;4974168;28;20038;-89
2021/09/02 05:18:13;;;;;;;0.10;0.10;;;;;;;19.86;58.92;102893.66;4974118;28;20038;-90
2021/09/02 05:20:39;;;;;;;0.00;0.00;;;;;;;19.87;58.83;102884.66;4972580;28;20141;-90
2021/09/02 05:23:05;;;;;;;0.08;0.08;;;;;;;19.86;58.86;102888.25;4973843;28;20035;-90
2021/09/02 05:25:31;;;;;;;0.00;0.00;;;;;;;19.86;58.65;102880.19;4973177;28;20030;-91
2021/09/02 05:27:57;;;;;;;0.10;0.10;;;;;;;19.87;58.95;102885.53;4974452;28;20037;-91
2021/09/02 05:30:24;;;;;;;0.00;0.00;;;;;;;19.89;58.92;102877.44;4974575;28;20387;-90
2021/09/02 05:32:50;;;;;;;0.00;0.00;;;;;;;19.91;58.55;102886.31;4974222;28;20110;-89
2021/09/02 05:35:16;;;;;;;0.40;0.40;;;;;;;19.91;58.70;102878.25;4974430;28;20383;-87
2021/09/02 05:37:42;;;;;;;0.00;0.00;;;;;;;19.93;58.66;102881.81;4967787;28;20027;-91
2021/09/02 05:40:10;;;;;;;0.10;0.10;;;;;;;19.94;58.75;102886.25;4974496;28;20027;-84
2021/09/02 05:42:37;;;;;;;0.20;0.20;;;;;;;19.96;58.61;102873.66;4974431;28;20062;-87
2021/09/02 05:45:04;;;;;;;0.03;0.03;;;;;;;19.98;58.52;102871.78;4974047;28;20050;-86
2021/09/02 05:47:31;;;;;;;0.47;0.45;;;;;;;20.02;58.31;102878.84;4987416;28;20054;-84
2021/09/02 05:49:58;;;;;;;0.10;0.10;;;;;;;20.08;58.29;102876.94;4973201;28;20069;-84
2021/09/02 05:52:24;;;;;;;0.63;0.63;;;;;;;20.09;58.50;102882.28;4988099;28;20041;-88
2021/09/02 05:54:54;;;;;;;1.75;1.33;;;;;;;20.12;58.31;102879.47;4972477;28;20153;-84
2021/09/02 05:57:22;;;;;;;0.90;0.85;;;;;;;20.16;58.09;102874.91;4970816;28;20031;-87
2021/09/02 05:59:48;;;;;;;0.10;0.10;;;;;;;20.18;58.19;102879.31;4972977;28;20041;-83
2021/09/02 06:02:15;;;;;;;0.10;0.10;;;;;;;20.22;58.04;102877.41;4972568;28;20050;-87
2021/09/02 06:04:41;;;;;;;0.10;0.10;;;;;;;20.27;58.15;102872.78;4988254;28;20039;-85
2021/09/02 06:07:07;;;;;;;0.30;0.30;;;;;;;20.32;57.85;102873.53;4974396;28;20039;-89
2021/09/02 06:09:34;;;;;;;0.00;0.00;;;;;;;20.36;58.11;102874.31;4975243;28;20492;-88
2021/09/02 06:12:01;;;;;;;0.13;0.13;;;;;;;20.40;57.95;102872.44;4972877;28;20031;-88
2021/09/02 06:14:33;;;;;;;0.10;0.10;;;;;;;20.45;57.62;102876.75;4976785;28;20037;-88
2021/09/02 06:16:59;;;;;;;0.10;0.10;;;;;;;20.45;57.46;102876.75;4975318;28;20356;-86
2021/09/02 06:19:28;;;;;;;0.13;0.13;;;;;;;20.49;57.37;102875.72;4977317;28;20030;-86
2021/09/02 06:21:54;;;;;;;0.40;0.40;;;;;;;20.49;57.20;102878.44;4976611;28;20051;-87
2021/09/02 06:24:20;;;;;;;0.10;0.10;;;;;;;20.56;57.05;102876.47;4976771;28;20019;-86
2021/09/02 06:26:46;;;;;;;0.05;0.05;;;;;;;20.62;56.95;102888.84;4975270;28;20042;-86
2021/09/02 06:29:13;;;;;;;0.15;0.15;;;;;;;20.67;56.74;102893.16;4976555;28;20030;-86
2021/09/02 06:31:41;;;;;;;0.10;0.10;;;;;;;20.71;56.54;102893.06;4974282;28;20043;-86
2021/09/02 06:34:07;;;;;;;0.00;0.00;;;;;;;20.74;56.59;102882.25;4975480;28;20035;-87
2021/09/02 06:36:33;;;;;;;0.10;0.10;;;;;;;20.75;56.28;102883.97;4976429;28;20042;-85
2021/09/02 06:38:59;;;;;;;0.10;0.10;;;;;;;20.79;56.69;102882.97;4976171;28;20030;-87
2021/09/02 06:41:25;;;;;;;0.63;0.40;;;;;;;20.84;56.76;102875.63;4977037;28;20026;-87
2021/09/02 06:43:51;;;;;;;0.15;0.15;;;;;;;20.88;56.92;102879.13;4976336;28;20114;-86
2021/09/02 06:46:18;;;;;;;0.10;0.10;;;;;;;20.93;57.05;102882.53;4975395;28;20406;-87
2021/09/02 06:48:44;;;;;;;0.17;0.17;;;;;;;20.96;56.82;102880.63;4976195;28;20069;-86
2021/09/02 06:51:10;;;;;;;0.10;0.10;;;;;;;21.00;56.67;102884.13;4976241;28;20034;-90
2021/09/02 06:53:36;;;;;;;0.05;0.05;;;;;;;21.04;56.45;102879.53;4976289;28;20023;-88
2021/09/02 06:56:02;;;;;;;0.47;0.47;;;;;;;21.06;56.21;102885.72;4976439;28;20185;-88
2021/09/02 06:58:28;;;;;;;1.15;0.65;;;;;;;21.06;56.20;102893.81;4976010;28;20034;-88
2021/09/02 07:00:55;;;;;;;0.10;0.10;;;;;;;21.12;56.17;102888.22;4975899;28;20093;-91
2021/09/02 07:03:21;;;;;;;1.13;1.02;;;;;;;21.19;56.38;102883.53;4976040;28;20027;-90
2021/09/02 07:05:47;;;;;;;0.32;0.32;;;;;;;21.26;55.83;102888.69;4976070;28;20038;-90
2021/09/02 07:08:13;;;;;;;3.03;0.65;;;;;;;21.33;55.38;102882.16;4976051;28;20031;-89
2021/09/02 07:10:39;;;;;;;0.10;0.10;;;;;;;21.42;55.78;102890.84;4975802;28;20038;-89
2021/09/02 07:13:05;;;;;;;0.10;0.10;;;;;;;21.46;56.17;102881.75;4975842;28;20121;-89
2021/09/02 07:15:32;;;;;;;0.10;0.10;;;;;;;21.56;55.38;102887.72;4975696;28;20101;-89
2021/09/02 07:17:58;;;;;;;0.32;0.32;;;;;;;21.61;55.57;102881.25;4975773;28;20038;-89
2021/09/02 07:20:24;;;;;;;0.10;0.10;;;;;;;21.70;54.80;102887.28;4975469;28;20042;-89
2021/09/02 07:22:50;;;;;;;0.30;0.30;;;;;;;21.78;54.92;102887.88;4975465;28;20038;-88
2021/09/02 07:25:17;;;;;;;0.40;0.40;;;;;;;21.87;54.88;102895.66;4975659;28;20038;-89
2021/09/02 07:27:43;;;;;;;0.10;0.10;;;;;;;21.96;54.55;102892.63;4975218;28;20394;-89
2021/09/02 07:30:10;;;;;;;0.13;0.13;;;;;;;22.07;54.32;102899.44;4975339;28;20035;-90
2021/09/02 07:32:36;;;;;;;0.10;0.10;;;;;;;22.10;53.31;102897.50;4974560;28;20434;-90
2021/09/02 07:35:03;;;;;;;0.05;0.05;;;;;;;22.18;54.06;102899.06;4975401;28;20031;-90
2021/09/02 07:37:29;;;;;;;1.27;0.40;;;;;;;22.20;53.71;102887.25;4975481;28;20069;-90
2021/09/02 07:39:55;;;;;;;0.38;0.38;;;;;;;22.24;53.63;102894.34;4974953;28;20041;-91
2021/09/02 07:42:21;;;;;;;0.20;0.20;;;;;;;22.30;53.77;102896.78;4975668;28;20054;-90
2021/09/02 07:44:47;;;;;;;0.13;0.13;;;;;;;22.36;53.16;102900.22;4975588;28;20041;-88
2021/09/02 07:47:14;;;;;;;0.00;0.00;;;;;;;22.43;53.27;102897.25;4974073;28;20081;-90
2021/09/02 07:49:41;;;;;;;0.77;0.77;;;;;;;22.49;52.88;102901.53;4975388;28;20027;-92
2021/09/02 07:52:09;;;;;;;1.52;0.60;;;;;;;22.43;51.87;102901.75;4977881;28;20030;-91
2021/09/02 07:54:36;;;;;;;0.90;0.90;;;;;;;22.49;51.35;102900.66;4975343;28;20041;-91
2021/09/02 07:57:03;;;;;;;0.55;0.55;;;;;;;22.43;50.23;102901.75;4975484;28;20062;-91
2021/09/02 07:59:29;;;;;;;0.10;0.10;;;;;;;22.46;51.94;102902.53;4975293;28;20041;-88
2021/09/02 08:01:55;;;;;;;0.28;0.28;;;;;;;22.52;51.73;102905.94;4974871;28;20035;-89
2021/09/02 08:04:21;;;;;;;0.10;0.10;;;;;;;22.56;51.66;102910.28;4974842;28;20086;-88
2021/09/02 08:06:47;;;;;;;3.53;1.00;;;;;;;22.60;51.00;102903.81;4975316;28;20064;-88
2021/09/02 08:09:13;;;;;;;0.10;0.10;;;;;;;22.62;50.12;102907.38;4975350;28;20038;-87
2021/09/02 08:11:39;;;;;;;0.08;0.08;;;;;;;22.56;48.88;102913.88;4975467;28;20069;-90
2021/09/02 08:14:06;;;;;;;0.57;0.40;;;;;;;22.52;50.61;102908.63;4973678;28;20068;-90
2021/09/02 08:16:38;;;;;;;0.20;0.20;;;;;;;22.58;49.99;102917.41;4975115;28;20030;-90
2021/09/02 08:19:06;;;;;;;0.10;0.10;;;;;;;22.71;49.85;102911.53;4975384;28;20034;-90
2021/09/02 08:21:34;;;;;;;0.10;0.10;;;;;;;22.79;49.41;102912.09;4974178;28;20426;-89
2021/09/02 08:24:03;;;;;;;0.20;0.20;;;;;;;22.85;49.24;102922.66;4975257;28;20431;-90
2021/09/02 08:26:34;;;;;;;0.52;0.52;;;;;;;22.94;49.00;102902.50;4974931;28;20386;-89
2021/09/02 08:29:02;;;;;;;0.30;0.30;;;;;;;22.92;47.44;102907.97;4971013;28;20600;-89
2021/09/02 08:31:28;;;;;;;0.00;0.00;;;;;;;22.97;48.10;102906.91;4973814;28;20605;-90
2021/09/02 08:33:55;;;;;;;0.10;0.10;;;;;;;22.92;45.71;102909.81;4990134;28;20066;-90
2021/09/02 08:36:21;;;;;;;0.10;0.10;;;;;;;22.91;47.27;102906.22;4974907;28;20351;-91
2021/09/02 08:38:48;;;;;;;0.32;0.32;;;;;;;23.05;47.99;102915.59;4975031;28;20109;-90
2021/09/02 08:41:16;;;;;;;0.20;0.20;;;;;;;23.12;47.50;102917.13;4974722;28;20027;-89
2021/09/02 08:43:43;;;;;;;0.10;0.10;;;;;;;23.22;47.94;102914.97;4974646;28;20057;-90
2021/09/02 08:46:10;;;;;;;0.20;0.20;;;;;;;23.27;46.13;102916.50;4973180;28;20035;-90
2021/09/02 08:48:45;;;;;;;1.40;0.90;;;;;;;23.37;45.36;102910.75;4974392;28;20169;-91
2021/09/02 08:51:12;;;;;;;0.10;0.10;;;;;;;23.38;46.20;102912.50;4974549;28;20038;-90
2021/09/02 08:53:38;;;;;;;0.10;0.10;;;;;;;23.38;45.91;102917.91;4974571;28;20084;-90
2021/09/02 08:56:04;;;;;;;0.10;0.10;;;;;;;23.49;46.00;102914.75;4974013;28;20031;-91
2021/09/02 08:58:32;;;;;;;0.10;0.10;;;;;;;23.50;47.11;102917.41;4975988;28;20038;-91
2021/09/02 09:00:59;;;;;;;1.23;1.23;;;;;;;23.58;45.81;102930.59;4972622;28;20031;-90
2021/09/02 09:03:25;;;;;;;0.50;0.50;;;;;;;23.50;45.67;102922.81;4974156;28;20023;-91
2021/09/02 09:05:54;;;;;;;0.65;0.65;;;;;;;23.55;43.73;102920.81;4973893;28;20027;-91
2021/09/02 09:08:30;;;;;;;0.10;0.10;;;;;;;23.55;44.36;102920.81;4974345;28;20038;-91
2021/09/02 09:10:57;;;;;;;0.73;0.73;;;;;;;23.59;45.57;102926.97;4974020;28;20070;-90
2021/09/02 09:13:30;;;;;;;0.10;0.10;;;;;;;23.76;45.38;102928.94;4974279;28;20034;-91
2021/09/02 09:15:56;;;;;;;0.25;0.25;;;;;;;23.65;43.34;102925.81;4973849;28;20394;-90
2021/09/02 09:18:24;;;;;;;0.47;0.47;;;;;;;23.76;44.54;102923.53;4974423;28;20031;-92
2021/09/02 09:23:58;;;;;;;0.10;0.10;;;;;;;23.78;44.75;102924.34;5067036;27;20440;-90
2021/09/02 09:26:26;;;;;;;0.10;0.10;;;;;;;23.82;44.83;102917.84;5067039;28;20035;-87
2021/09/02 09:28:57;;;;;;;0.22;0.22;;;;;;;23.85;43.30;102914.13;5066840;28;20029;-92
2021/09/02 09:34:08;;;;;;;0.85;0.55;;;;;;;23.84;43.85;102913.25;5090842;28;20462;-86
2021/09/02 09:36:37;;;;;;;0.77;0.77;;;;;;;23.92;44.42;102917.50;5062363;28;20048;-88
2021/09/02 09:41:47;;;;;;;0.20;0.20;;;;;;;24.09;44.43;102914.91;5080853;27;20460;-89
2021/09/02 09:44:19;;;;;;;1.40;1.33;;;;;;;24.19;45.35;102913.53;5070290;28;20421;-90
2021/09/02 09:50:00;;;;;;;0.20;0.20;;;;;;;24.45;44.20;102900.66;5010866;28;20360;-89
2021/09/02 09:52:37;;;;;;;0.10;0.10;;;;;;;24.48;43.77;102900.50;5008580;28;20358;-88
2021/09/02 09:57:46;;;;;;;0.08;0.08;;;;;;;24.51;42.07;102894.94;5074955;27;20418;-89
2021/09/02 10:00:16;;;;;;;0.10;0.10;;;;;;;24.49;43.21;102894.13;5059700;28;20499;-88
2021/09/02 10:02:46;;;;;;;0.57;0.40;;;;;;;24.51;43.13;102891.34;5060870;28;20040;-90
2021/09/02 10:05:14;;;;;;;0.10;0.10;;;;;;;24.51;43.10;102894.94;5058339;28;20032;-90
2021/09/02 10:07:44;;;;;;;0.40;0.40;;;;;;;24.68;43.44;102891.44;5061184;28;20148;-90
2021/09/02 10:10:14;;;;;;;0.30;0.30;;;;;;;24.71;41.12;102895.84;5063055;28;20025;-91
2021/09/02 10:12:43;;;;;;;0.00;0.00;;;;;;;24.84;42.73;102894.31;5054037;28;20033;-92
2021/09/02 10:15:12;;;;;;;0.25;0.25;;;;;;;24.92;42.45;102893.06;5065650;28;20068;-93
2021/09/02 10:17:40;;;;;;;0.10;0.10;;;;;;;24.93;42.06;102884.00;5059068;28;20387;-91
2021/09/02 10:20:22;;;;;;;0.73;0.73;;;;;;;24.85;42.65;102887.94;5070609;28;20032;-92
2021/09/02 10:22:50;;;;;;;0.63;0.63;;;;;;;24.89;42.41;102885.09;5053476;28;20025;-90
2021/09/02 10:28:30;;;;;;;0.10;0.10;;;;;;;25.02;41.54;102878.09;5050454;28;20479;-90
2021/09/02 10:30:59;;;;;;;0.43;0.40;;;;;;;24.96;41.13;102881.09;5030899;28;20033;-91
2021/09/02 10:33:46;;;;;;;4.80;0.65;;;;;;;25.08;41.63;102877.78;5037387;28;20539;-90
2021/09/02 10:41:47;;;;;;;0.43;0.43;;;;;;;25.15;42.54;102870.25;5090720;27;20469;-88
2021/09/02 10:44:18;;;;;;;0.10;0.10;;;;;;;25.20;42.07;102866.34;5070225;28;20467;-90
2021/09/02 10:49:34;;;;;;;0.20;0.20;;;;;;;25.51;41.53;102867.53;5078131;28;20451;-93
2021/09/02 10:52:04;;;;;;;0.82;0.82;;;;;;;25.79;41.74;102863.34;5077573;28;20029;-92
2021/09/02 10:54:36;;;;;;;0.30;0.30;;;;;;;26.08;39.37;102863.69;5085569;28;20040;-92
2021/09/02 10:57:12;;;;;;;0.40;0.40;;;;;;;26.23;39.17;102870.13;5057956;28;20111;-93
2021/09/02 11:05:12;;;;;;;0.25;0.25;;;;;;;26.06;40.11;102862.03;5075737;28;20508;-93
2021/09/02 11:07:44;;;;;;;0.38;0.38;;;;;;;26.00;40.02;102865.91;5056106;28;20112;-89
2021/09/02 11:10:13;;;;;;;2.45;0.47;;;;;;;25.77;39.20;102856.25;5050800;28;20025;-88
2021/09/02 11:12:40;;;;;;;0.82;0.82;;;;;;;25.59;40.87;102860.81;5051041;28;20508;-93
2021/09/02 11:15:07;;;;;;;0.10;0.10;;;;;;;25.51;40.74;102859.38;5050732;28;20039;-89
2021/09/02 11:17:34;;;;;;;0.10;0.10;;;;;;;25.52;41.73;102847.56;5051343;28;20048;-91
2021/09/02 11:20:00;;;;;;;0.10;0.10;;;;;;;25.56;41.72;102860.97;5051809;28;20033;-88
2021/09/02 11:22:26;;;;;;;0.35;0.35;;;;;;;25.55;40.90;102854.69;5062391;28;20030;-87
2021/09/02 11:24:56;;;;;;;0.30;0.30;;;;;;;25.48;41.40;102855.94;5061030;28;20113;-86
2021/09/02 11:27:29;;;;;;;0.40;0.40;;;;;;;25.77;40.88;102856.25;5057983;28;20059;-90
2021/09/02 11:33:02;;;;;;;0.00;0.00;;;;;;;25.94;40.35;102850.81;5087274;28;20405;-90
2021/09/02 11:35:28;;;;;;;0.10;0.10;;;;;;;26.08;39.45;102847.41;5073696;28;20031;-90
2021/09/02 11:37:55;;;;;;;0.10;0.10;;;;;;;26.18;39.40;102846.88;5072714;28;20029;-91
2021/09/02 11:40:39;;;;;;;0.00;0.00;;;;;;;26.29;37.25;102833.56;5070870;28;20471;-83
2021/09/02 11:43:19;;;;;;;1.17;0.30;;;;;;;26.37;38.44;102836.75;5068686;28;20139;-84
2021/09/02 11:45:54;;;;;;;0.10;0.10;;;;;;;26.50;38.11;102836.94;5066787;28;20503;-84
2021/09/02 11:48:21;;;;;;;0.20;0.20;;;;;;;26.65;37.69;102827.03;5069862;28;20025;-86
2021/09/02 11:50:58;;;;;;;0.68;0.68;;;;;;;26.86;38.79;102832.25;5069021;28;20035;-86
2021/09/02 11:53:29;;;;;;;0.25;0.25;;;;;;;26.99;40.06;102827.81;5067216;28;20024;-86
2021/09/02 11:55:56;;;;;;;0.10;0.10;;;;;;;26.99;38.57;102822.38;5069255;28;20025;-84
2021/09/02 11:58:26;;;;;;;0.30;0.30;;;;;;;27.11;37.41;102827.09;5069208;28;20025;-85
2021/09/02 12:01:00;;;;;;;0.35;0.35;;;;;;;27.26;37.10;102824.44;5068904;28;20096;-86